Guenther Schulte — VRGK8 — position and weather

sailwx.info

Track history (hours):
 
Tides and Currents Weather Stations Pressure Air Temp Water Temp Dewpoint Dewpoint Depression Visibility Wind Speed Wind Dir Waves Ship Positions

Guenther Schulte

Last reported at 2018-Feb-15 19:39 UTC. Time now 2018-Feb-17 23:45 UTC.
Position N 01°22' E 104°39'.

Length 231 m; draft 12.5 m.

Type: Cargo ship. MMSI: 477728800.

Date/timePositionNaut miles runAvg speedWind from/ knotsBaromVisibWave heightAir tempDewpointWater temp
2018-Feb-15 19:39N 01°22' E 104°39'311.7
2018-Feb-15 19:23N 01°24' E 104°37'810.1
2018-Feb-15 18:35N 01°24' E 104°29'2612.9
2018-Feb-15 16:35N 01°15' E 104°05'214.7
2018-Feb-15 16:28N 01°15' E 104°03'714.8
2018-Feb-15 16:00N 01°13' E 103°56'611.4
2018-Feb-15 15:30N 01°11' E 103°51'3 6.7
2018-Feb-15 15:00N 01°13' E 103°48'4 8.1
2018-Feb-15 14:30N 01°16' E 103°46'1 2.4
2018-Feb-15 14:00N 01°17' E 103°46'0 0.1
2018-Feb-15 13:30N 01°17' E 103°46'0 0.0
2018-Feb-15 12:58N 01°17' E 103°46'0 0.0
2018-Feb-15 12:25N 01°17' E 103°46'0 0.0
2018-Feb-15 11:58N 01°17' E 103°46'0 0.0
2018-Feb-15 11:28N 01°17' E 103°46'0 0.0
2018-Feb-15 10:58N 01°17' E 103°46'0 0.0
2018-Feb-15 10:28N 01°17' E 103°46'0 0.0
2018-Feb-15 09:58N 01°17' E 103°46'0 0.0
2018-Feb-15 09:28N 01°17' E 103°46'0 0.0
2018-Feb-15 08:58N 01°17' E 103°46'0 0.0
2018-Feb-15 08:28N 01°17' E 103°46'0 0.0
2018-Feb-15 07:49N 01°17' E 103°46'0 0.0
2018-Feb-15 07:28N 01°17' E 103°46'0 0.0
2018-Feb-15 06:52N 01°17' E 103°46'0 0.0
2018-Feb-15 06:25N 01°17' E 103°46'0 0.0
2018-Feb-15 05:58N 01°17' E 103°46'0 0.0
2018-Feb-15 05:28N 01°17' E 103°46'0 0.0
2018-Feb-15 04:55N 01°17' E 103°46'0 0.0
2018-Feb-15 04:28N 01°17' E 103°46'0 0.0
2018-Feb-15 03:58N 01°17' E 103°46'0 0.0
2018-Feb-15 03:25N 01°17' E 103°46'0 0.0
2018-Feb-15 02:58N 01°17' E 103°46'0 0.0
2018-Feb-15 02:28N 01°17' E 103°46'0 0.0
2018-Feb-15 01:58N 01°17' E 103°46'0 0.0
2018-Feb-15 01:28N 01°17' E 103°46'0 0.0
2018-Feb-15 00:58N 01°17' E 103°46'0 0.0
2018-Feb-15 00:28N 01°17' E 103°46'0 0.0
2018-Feb-14 23:58N 01°17' E 103°46'0 0.1
2018-Feb-14 23:30N 01°17' E 103°46'1 1.7
2018-Feb-14 23:00N 01°17' E 103°45'3 6.2
2018-Feb-14 22:30N 01°14' E 103°47'2 4.9
2018-Feb-14 22:00N 01°13' E 103°49'1 1.3
2018-Feb-14 21:29N 01°14' E 103°49'0 0.2
2018-Feb-14 20:56N 01°14' E 103°49'0 0.2
2018-Feb-14 20:23N 01°14' E 103°49'0 0.2
2018-Feb-14 19:56N 01°14' E 103°49'0 0.0
2018-Feb-14 19:29N 01°14' E 103°49'0 0.0
2018-Feb-14 18:59N 01°14' E 103°49'0 0.0
2018-Feb-14 18:23N 01°14' E 103°49'0 0.0
2018-Feb-14 17:53N 01°14' E 103°49'0 0.1
2018-Feb-14 17:26N 01°14' E 103°49'0 0.2
2018-Feb-14 16:59N 01°14' E 103°49'0 0.2
2018-Feb-14 16:29N 01°14' E 103°49'0 0.0
2018-Feb-14 15:56N 01°14' E 103°49'0 0.3
2018-Feb-14 15:23N 01°14' E 103°49'0 0.2
2018-Feb-14 14:59N 01°14' E 103°49'0 0.0
2018-Feb-14 14:14N 01°14' E 103°49'0 0.5
2018-Feb-14 13:56N 01°14' E 103°49'0 0.1
2018-Feb-14 13:29N 01°14' E 103°49'0 0.1
2018-Feb-14 12:59N 01°14' E 103°49'0 0.1
2018-Feb-14 12:08N 01°14' E 103°49'0 0.1
2018-Feb-14 11:59N 01°14' E 103°49'0 0.1
2018-Feb-14 11:26N 01°14' E 103°49'0 0.2
2018-Feb-14 10:44N 01°14' E 103°49'0 0.1
2018-Feb-14 10:26N 01°14' E 103°49'0 0.1
2018-Feb-14 09:56N 01°14' E 103°49'0 0.2
2018-Feb-14 09:29N 01°14' E 103°49'0 0.0
2018-Feb-14 08:59N 01°14' E 103°49'0 0.0
2018-Feb-14 08:29N 01°14' E 103°49'0 0.0
2018-Feb-14 07:59N 01°14' E 103°49'0 0.1
2018-Feb-14 07:26N 01°14' E 103°49'1 3.2
2018-Feb-14 07:00N 01°12' E 103°49'5 9.9
2018-Feb-14 06:30N 01°15' E 103°44'715.0
2018-Feb-14 06:01N 01°12' E 103°38'3 6.6
2018-Feb-14 05:30N 01°12' E 103°34'3 6.0
2018-Feb-14 05:00N 01°14' E 103°32'4 7.3
2018-Feb-14 04:30N 01°18' E 103°33'4 7.4
2018-Feb-14 04:00N 01°22' E 103°33'0 0.1
2018-Feb-14 03:29N 01°22' E 103°33'0 0.1
2018-Feb-14 02:59N 01°22' E 103°33'0 0.1
2018-Feb-14 02:30N 01°22' E 103°33'0 0.0
2018-Feb-14 01:59N 01°22' E 103°33'0 0.0
2018-Feb-14 01:21N 01°22' E 103°33'0 0.0
2018-Feb-14 00:54N 01°22' E 103°33'0 0.0
2018-Feb-14 00:21N 01°22' E 103°33'0 0.0
2018-Feb-13 23:45N 01°22' E 103°33'0 0.0
2018-Feb-13 22:24N 01°22' E 103°33'0 0.0
2018-Feb-13 21:57N 01°22' E 103°33'0 0.0
2018-Feb-13 21:27N 01°22' E 103°33'0 0.0
2018-Feb-13 20:54N 01°22' E 103°33'0 0.0
2018-Feb-13 20:30N 01°22' E 103°33'0 0.0
2018-Feb-13 19:51N 01°22' E 103°33'0 0.0
2018-Feb-13 19:27N 01°22' E 103°33'0 0.0
2018-Feb-13 18:39N 01°22' E 103°33'0 0.1
2018-Feb-13 18:27N 01°22' E 103°33'0 0.0
2018-Feb-13 17:54N 01°22' E 103°33'0 0.0
2018-Feb-13 17:27N 01°22' E 103°33'0 0.1
2018-Feb-13 17:00N 01°22' E 103°33'0 0.1
2018-Feb-13 16:18N 01°22' E 103°33'0 0.0
2018-Feb-13 15:54N 01°22' E 103°33'0 0.0
2018-Feb-13 15:30N 01°22' E 103°33'0 0.0
2018-Feb-13 14:36N 01°22' E 103°33'0 0.0
2018-Feb-13 14:30N 01°22' E 103°33'0 0.0
2018-Feb-13 13:54N 01°22' E 103°33'0 0.0
2018-Feb-13 13:24N 01°22' E 103°33'0 0.0
2018-Feb-13 12:15N 01°22' E 103°33'0 0.0
2018-Feb-13 11:57N 01°22' E 103°33'0 0.0
2018-Feb-13 10:33N 01°22' E 103°33'0 0.1
2018-Feb-13 10:27N 01°22' E 103°33'0 0.0
2018-Feb-13 09:57N 01°22' E 103°33'0 0.0
2018-Feb-13 09:21N 01°22' E 103°33'0 0.0
2018-Feb-13 08:42N 01°22' E 103°33'0 0.0
2018-Feb-13 08:24N 01°22' E 103°33'0 0.3
2018-Feb-13 08:00N 01°21' E 103°33'3 5.6
2018-Feb-13 07:30N 01°19' E 103°33'510.8
2018-Feb-13 07:00N 01°14' E 103°32'4 7.4
2018-Feb-13 06:31N 01°11' E 103°29'1 2.4
2018-Feb-13 05:59N 01°12' E 103°30'1 1.0
2018-Feb-13 05:30N 01°12' E 103°30'0 0.7
2018-Feb-13 04:59N 01°11' E 103°30'1 1.2
2018-Feb-13 04:30N 01°11' E 103°30'3 5.9
2018-Feb-13 04:00N 01°11' E 103°33'5 9.7
2018-Feb-13 03:30N 01°11' E 103°38'510.5
2018-Feb-13 03:00N 01°09' E 103°43'611.5
2018-Feb-13 02:30N 01°11' E 103°48'712.7
2018-Feb-13 01:59N 01°13' E 103°54'611.5
2018-Feb-13 01:29N 01°15' E 103°60'5 9.1
2018-Feb-13 00:58N 01°16' E 104°04'  
2018-Feb-07 00:22N 23°15' E 117°47'818.0
2018-Feb-06 23:54N 23°22' E 117°51'818.1
2018-Feb-06 23:27N 23°29' E 117°56'1818.0
2018-Feb-06 22:25N 23°46' E 118°05'717.8
2018-Feb-06 22:00N 23°52' E 118°09'918.1
2018-Feb-06 21:30N 23°59' E 118°15'917.8
2018-Feb-06 21:00N 24°07' E 118°18'714.9
2018-Feb-06 20:30N 24°14' E 118°16'1414.4
2018-Feb-06 19:30N 24°25' E 118°05'510.5
2018-Feb-06 19:00N 24°30' E 118°04'0 0.8
2018-Feb-06 18:24N 24°31' E 118°05'0 0.0
2018-Feb-06 17:47N 24°31' E 118°05'0 0.0
2018-Feb-06 17:29N 24°31' E 118°05'0 0.0
2018-Feb-06 16:47N 24°31' E 118°05'0 0.0
2018-Feb-06 16:29N 24°31' E 118°05'0 0.0
2018-Feb-06 15:53N 24°31' E 118°05'0 0.0
2018-Feb-06 15:29N 24°31' E 118°05'0 0.0
2018-Feb-06 14:29N 24°31' E 118°05'0 0.0
2018-Feb-06 13:53N 24°31' E 118°05'0 0.0
2018-Feb-06 13:29N 24°31' E 118°05'0 0.0
2018-Feb-06 12:59N 24°31' E 118°05'0 0.0
2018-Feb-06 12:14N 24°31' E 118°05'0 0.0
2018-Feb-06 11:56N 24°31' E 118°05'0 0.0
2018-Feb-06 11:23N 24°31' E 118°05'0 0.0
2018-Feb-06 10:59N 24°31' E 118°05'0 0.0
2018-Feb-06 10:29N 24°31' E 118°05'0 0.0
2018-Feb-06 09:38N 24°31' E 118°05'0 0.0
2018-Feb-06 09:14N 24°31' E 118°05'0 0.5
2018-Feb-06 09:00N 24°30' E 118°05'4 8.8
2018-Feb-06 08:30N 24°26' E 118°03'612.7
2018-Feb-06 08:00N 24°22' E 118°08'4 8.7
2018-Feb-06 07:30N 24°20' E 118°12'0 0.5
2018-Feb-06 06:58N 24°20' E 118°12'0 0.0
2018-Feb-06 06:28N 24°20' E 118°12'0 0.0
2018-Feb-06 05:58N 24°20' E 118°12'0 0.0
2018-Feb-06 04:25N 24°20' E 118°12'0 0.0
2018-Feb-06 03:28N 24°20' E 118°12'0 0.0
2018-Feb-06 01:59N 24°20' E 118°12'0 0.0
2018-Feb-06 01:30N 24°20' E 118°12'1 1.1
2018-Feb-06 01:00N 24°19' E 118°12'1 1.7
2018-Feb-06 00:30N 24°19' E 118°13'10 9.6
2018-Feb-05 23:30N 24°12' E 118°21'1211.7
2018-Feb-05 22:30N 24°12' E 118°34'  
Track history (hours):
 
Tides and Currents Weather Stations Pressure Air Temp Water Temp Dewpoint Dewpoint Depression Visibility Wind Speed Wind Dir Waves Ship Positions

Guenther Schulte

Last reported at 2018-Feb-15 19:39 UTC. Time now 2018-Feb-17 23:45 UTC.
Position N 01°22' E 104°39'.

Length 231 m; draft 12.5 m.

Type: Cargo ship. MMSI: 477728800.

Date/timePositionNaut miles runAvg speedWind from/ knotsBaromVisibWave heightAir tempDewpointWater temp
2018-Feb-15 19:39N 01°22' E 104°39'311.7
2018-Feb-15 19:23N 01°24' E 104°37'810.1
2018-Feb-15 18:35N 01°24' E 104°29'2612.9
2018-Feb-15 16:35N 01°15' E 104°05'214.7
2018-Feb-15 16:28N 01°15' E 104°03'714.8
2018-Feb-15 16:00N 01°13' E 103°56'611.4
2018-Feb-15 15:30N 01°11' E 103°51'3 6.7
2018-Feb-15 15:00N 01°13' E 103°48'4 8.1
2018-Feb-15 14:30N 01°16' E 103°46'1 2.4
2018-Feb-15 14:00N 01°17' E 103°46'0 0.1
2018-Feb-15 13:30N 01°17' E 103°46'0 0.0
2018-Feb-15 12:58N 01°17' E 103°46'0 0.0
2018-Feb-15 12:25N 01°17' E 103°46'0 0.0
2018-Feb-15 11:58N 01°17' E 103°46'0 0.0
2018-Feb-15 11:28N 01°17' E 103°46'0 0.0
2018-Feb-15 10:58N 01°17' E 103°46'0 0.0
2018-Feb-15 10:28N 01°17' E 103°46'0 0.0
2018-Feb-15 09:58N 01°17' E 103°46'0 0.0
2018-Feb-15 09:28N 01°17' E 103°46'0 0.0
2018-Feb-15 08:58N 01°17' E 103°46'0 0.0
2018-Feb-15 08:28N 01°17' E 103°46'0 0.0
2018-Feb-15 07:49N 01°17' E 103°46'0 0.0
2018-Feb-15 07:28N 01°17' E 103°46'0 0.0
2018-Feb-15 06:52N 01°17' E 103°46'0 0.0
2018-Feb-15 06:25N 01°17' E 103°46'0 0.0
2018-Feb-15 05:58N 01°17' E 103°46'0 0.0
2018-Feb-15 05:28N 01°17' E 103°46'0 0.0
2018-Feb-15 04:55N 01°17' E 103°46'0 0.0
2018-Feb-15 04:28N 01°17' E 103°46'0 0.0
2018-Feb-15 03:58N 01°17' E 103°46'0 0.0
2018-Feb-15 03:25N 01°17' E 103°46'0 0.0
2018-Feb-15 02:58N 01°17' E 103°46'0 0.0
2018-Feb-15 02:28N 01°17' E 103°46'0 0.0
2018-Feb-15 01:58N 01°17' E 103°46'0 0.0
2018-Feb-15 01:28N 01°17' E 103°46'0 0.0
2018-Feb-15 00:58N 01°17' E 103°46'0 0.0
2018-Feb-15 00:28N 01°17' E 103°46'0 0.0
2018-Feb-14 23:58N 01°17' E 103°46'0 0.1
2018-Feb-14 23:30N 01°17' E 103°46'1 1.7
2018-Feb-14 23:00N 01°17' E 103°45'3 6.2
2018-Feb-14 22:30N 01°14' E 103°47'2 4.9
2018-Feb-14 22:00N 01°13' E 103°49'1 1.3
2018-Feb-14 21:29N 01°14' E 103°49'0 0.2
2018-Feb-14 20:56N 01°14' E 103°49'0 0.2
2018-Feb-14 20:23N 01°14' E 103°49'0 0.2
2018-Feb-14 19:56N 01°14' E 103°49'0 0.0
2018-Feb-14 19:29N 01°14' E 103°49'0 0.0
2018-Feb-14 18:59N 01°14' E 103°49'0 0.0
2018-Feb-14 18:23N 01°14' E 103°49'0 0.0
2018-Feb-14 17:53N 01°14' E 103°49'0 0.1
2018-Feb-14 17:26N 01°14' E 103°49'0 0.2
2018-Feb-14 16:59N 01°14' E 103°49'0 0.2
2018-Feb-14 16:29N 01°14' E 103°49'0 0.0
2018-Feb-14 15:56N 01°14' E 103°49'0 0.3
2018-Feb-14 15:23N 01°14' E 103°49'0 0.2
2018-Feb-14 14:59N 01°14' E 103°49'0 0.0
2018-Feb-14 14:14N 01°14' E 103°49'0 0.5
2018-Feb-14 13:56N 01°14' E 103°49'0 0.1
2018-Feb-14 13:29N 01°14' E 103°49'0 0.1
2018-Feb-14 12:59N 01°14' E 103°49'0 0.1
2018-Feb-14 12:08N 01°14' E 103°49'0 0.1
2018-Feb-14 11:59N 01°14' E 103°49'0 0.1
2018-Feb-14 11:26N 01°14' E 103°49'0 0.2
2018-Feb-14 10:44N 01°14' E 103°49'0 0.1
2018-Feb-14 10:26N 01°14' E 103°49'0 0.1
2018-Feb-14 09:56N 01°14' E 103°49'0 0.2
2018-Feb-14 09:29N 01°14' E 103°49'0 0.0
2018-Feb-14 08:59N 01°14' E 103°49'0 0.0
2018-Feb-14 08:29N 01°14' E 103°49'0 0.0
2018-Feb-14 07:59N 01°14' E 103°49'0 0.1
2018-Feb-14 07:26N 01°14' E 103°49'1 3.2
2018-Feb-14 07:00N 01°12' E 103°49'5 9.9
2018-Feb-14 06:30N 01°15' E 103°44'715.0
2018-Feb-14 06:01N 01°12' E 103°38'3 6.6
2018-Feb-14 05:30N 01°12' E 103°34'3 6.0
2018-Feb-14 05:00N 01°14' E 103°32'4 7.3
2018-Feb-14 04:30N 01°18' E 103°33'4 7.4
2018-Feb-14 04:00N 01°22' E 103°33'0 0.1
2018-Feb-14 03:29N 01°22' E 103°33'0 0.1
2018-Feb-14 02:59N 01°22' E 103°33'0 0.1
2018-Feb-14 02:30N 01°22' E 103°33'0 0.0
2018-Feb-14 01:59N 01°22' E 103°33'0 0.0
2018-Feb-14 01:21N 01°22' E 103°33'0 0.0
2018-Feb-14 00:54N 01°22' E 103°33'0 0.0
2018-Feb-14 00:21N 01°22' E 103°33'0 0.0
2018-Feb-13 23:45N 01°22' E 103°33'0 0.0
2018-Feb-13 22:24N 01°22' E 103°33'0 0.0
2018-Feb-13 21:57N 01°22' E 103°33'0 0.0
2018-Feb-13 21:27N 01°22' E 103°33'0 0.0
2018-Feb-13 20:54N 01°22' E 103°33'0 0.0
2018-Feb-13 20:30N 01°22' E 103°33'0 0.0
2018-Feb-13 19:51N 01°22' E 103°33'0 0.0
2018-Feb-13 19:27N 01°22' E 103°33'0 0.0
2018-Feb-13 18:39N 01°22' E 103°33'0 0.1
2018-Feb-13 18:27N 01°22' E 103°33'0 0.0
2018-Feb-13 17:54N 01°22' E 103°33'0 0.0
2018-Feb-13 17:27N 01°22' E 103°33'0 0.1
2018-Feb-13 17:00N 01°22' E 103°33'0 0.1
2018-Feb-13 16:18N 01°22' E 103°33'0 0.0
2018-Feb-13 15:54N 01°22' E 103°33'0 0.0
2018-Feb-13 15:30N 01°22' E 103°33'0 0.0
2018-Feb-13 14:36N 01°22' E 103°33'0 0.0
2018-Feb-13 14:30N 01°22' E 103°33'0 0.0
2018-Feb-13 13:54N 01°22' E 103°33'0 0.0
2018-Feb-13 13:24N 01°22' E 103°33'0 0.0
2018-Feb-13 12:15N 01°22' E 103°33'0 0.0
2018-Feb-13 11:57N 01°22' E 103°33'0 0.0
2018-Feb-13 10:33N 01°22' E 103°33'0 0.1
2018-Feb-13 10:27N 01°22' E 103°33'0 0.0
2018-Feb-13 09:57N 01°22' E 103°33'0 0.0
2018-Feb-13 09:21N 01°22' E 103°33'0 0.0
2018-Feb-13 08:42N 01°22' E 103°33'0 0.0
2018-Feb-13 08:24N 01°22' E 103°33'0 0.3
2018-Feb-13 08:00N 01°21' E 103°33'3 5.6
2018-Feb-13 07:30N 01°19' E 103°33'510.8
2018-Feb-13 07:00N 01°14' E 103°32'4 7.4
2018-Feb-13 06:31N 01°11' E 103°29'1 2.4
2018-Feb-13 05:59N 01°12' E 103°30'1 1.0
2018-Feb-13 05:30N 01°12' E 103°30'0 0.7
2018-Feb-13 04:59N 01°11' E 103°30'1 1.2
2018-Feb-13 04:30N 01°11' E 103°30'3 5.9
2018-Feb-13 04:00N 01°11' E 103°33'5 9.7
2018-Feb-13 03:30N 01°11' E 103°38'510.5
2018-Feb-13 03:00N 01°09' E 103°43'611.5
2018-Feb-13 02:30N 01°11' E 103°48'712.7
2018-Feb-13 01:59N 01°13' E 103°54'611.5
2018-Feb-13 01:29N 01°15' E 103°60'5 9.1
2018-Feb-13 00:58N 01°16' E 104°04'  
2018-Feb-07 00:22N 23°15' E 117°47'818.0
2018-Feb-06 23:54N 23°22' E 117°51'818.1
2018-Feb-06 23:27N 23°29' E 117°56'1818.0
2018-Feb-06 22:25N 23°46' E 118°05'717.8
2018-Feb-06 22:00N 23°52' E 118°09'918.1
2018-Feb-06 21:30N 23°59' E 118°15'917.8
2018-Feb-06 21:00N 24°07' E 118°18'714.9
2018-Feb-06 20:30N 24°14' E 118°16'1414.4
2018-Feb-06 19:30N 24°25' E 118°05'510.5
2018-Feb-06 19:00N 24°30' E 118°04'0 0.8
2018-Feb-06 18:24N 24°31' E 118°05'0 0.0
2018-Feb-06 17:47N 24°31' E 118°05'0 0.0
2018-Feb-06 17:29N 24°31' E 118°05'0 0.0
2018-Feb-06 16:47N 24°31' E 118°05'0 0.0
2018-Feb-06 16:29N 24°31' E 118°05'0 0.0
2018-Feb-06 15:53N 24°31' E 118°05'0 0.0
2018-Feb-06 15:29N 24°31' E 118°05'0 0.0
2018-Feb-06 14:29N 24°31' E 118°05'0 0.0
2018-Feb-06 13:53N 24°31' E 118°05'0 0.0
2018-Feb-06 13:29N 24°31' E 118°05'0 0.0
2018-Feb-06 12:59N 24°31' E 118°05'0 0.0
2018-Feb-06 12:14N 24°31' E 118°05'0 0.0
2018-Feb-06 11:56N 24°31' E 118°05'0 0.0
2018-Feb-06 11:23N 24°31' E 118°05'0 0.0
2018-Feb-06 10:59N 24°31' E 118°05'0 0.0
2018-Feb-06 10:29N 24°31' E 118°05'0 0.0
2018-Feb-06 09:38N 24°31' E 118°05'0 0.0
2018-Feb-06 09:14N 24°31' E 118°05'0 0.5
2018-Feb-06 09:00N 24°30' E 118°05'4 8.8
2018-Feb-06 08:30N 24°26' E 118°03'612.7
2018-Feb-06 08:00N 24°22' E 118°08'4 8.7
2018-Feb-06 07:30N 24°20' E 118°12'0 0.5
2018-Feb-06 06:58N 24°20' E 118°12'0 0.0
2018-Feb-06 06:28N 24°20' E 118°12'0 0.0
2018-Feb-06 05:58N 24°20' E 118°12'0 0.0
2018-Feb-06 04:25N 24°20' E 118°12'0 0.0
2018-Feb-06 03:28N 24°20' E 118°12'0 0.0
2018-Feb-06 01:59N 24°20' E 118°12'0 0.0
2018-Feb-06 01:30N 24°20' E 118°12'1 1.1
2018-Feb-06 01:00N 24°19' E 118°12'1 1.7
2018-Feb-06 00:30N 24°19' E 118°13'10 9.6
2018-Feb-05 23:30N 24°12' E 118°21'1211.7
2018-Feb-05 22:30N 24°12' E 118°34'  

Dump ship's entire track history